createdAt,value
2022-12-19T00:00:08.516Z,19.61
2022-12-19T00:02:42.216Z,19.59
2022-12-19T00:05:11.205Z,19.58
2022-12-19T00:07:38.488Z,19.58
2022-12-19T00:10:06.833Z,19.57
2022-12-19T00:12:34.314Z,19.57
2022-12-19T00:15:02.021Z,19.56
2022-12-19T00:17:29.292Z,19.55
2022-12-19T00:19:57.048Z,19.56
2022-12-19T00:22:24.445Z,19.55
2022-12-19T00:24:51.868Z,19.55
2022-12-19T00:27:19.308Z,19.54
2022-12-19T00:29:47.558Z,19.55
2022-12-19T00:32:15.688Z,19.54
2022-12-19T00:34:43.972Z,19.54
2022-12-19T00:37:11.932Z,19.53
2022-12-19T00:39:39.182Z,19.53
2022-12-19T00:42:06.688Z,19.53
2022-12-19T00:44:33.997Z,19.53
2022-12-19T00:47:01.269Z,19.53
2022-12-19T00:49:28.644Z,19.52
2022-12-19T00:51:57.960Z,19.52
2022-12-19T00:54:25.618Z,19.52
2022-12-19T00:56:53.303Z,19.51
2022-12-19T00:59:26.460Z,19.51
2022-12-19T01:01:57.494Z,19.50
2022-12-19T01:04:28.534Z,19.50
2022-12-19T01:06:58.881Z,19.50
2022-12-19T01:09:33.611Z,19.50
2022-12-19T01:12:21.014Z,19.49
2022-12-19T01:14:58.758Z,19.49
2022-12-19T01:17:44.445Z,19.49
2022-12-19T01:20:15.069Z,19.48
2022-12-19T01:22:42.776Z,19.48
2022-12-19T01:25:10.641Z,19.48
2022-12-19T01:27:40.278Z,19.47
2022-12-19T01:30:08.204Z,19.46
2022-12-19T01:32:38.950Z,19.46
2022-12-19T01:35:06.898Z,19.45
2022-12-19T01:37:38.146Z,19.45
2022-12-19T01:40:05.978Z,19.45
2022-12-19T01:42:37.263Z,19.45
2022-12-19T01:45:07.426Z,19.44
2022-12-19T01:48:00.831Z,19.44
2022-12-19T01:51:01.302Z,19.44
2022-12-19T01:53:36.216Z,19.43
2022-12-19T01:56:10.543Z,19.42
2022-12-19T01:58:41.785Z,19.43
2022-12-19T02:01:09.299Z,19.42
2022-12-19T02:03:38.602Z,19.42
2022-12-19T02:06:07.332Z,19.42
2022-12-19T02:08:36.501Z,19.42
2022-12-19T02:11:04.003Z,19.41
2022-12-19T02:13:33.050Z,19.42
2022-12-19T02:16:06.418Z,19.42
2022-12-19T02:18:58.687Z,19.41
2022-12-19T02:21:48.898Z,19.41
2022-12-19T02:24:56.825Z,19.41
2022-12-19T02:27:54.949Z,19.39
2022-12-19T02:30:34.703Z,19.40
2022-12-19T02:33:08.598Z,19.39
2022-12-19T02:35:46.871Z,19.39
2022-12-19T02:38:31.170Z,19.38
2022-12-19T02:41:11.000Z,19.39
2022-12-19T02:43:46.461Z,19.39
2022-12-19T02:46:19.581Z,19.36
2022-12-19T02:48:47.600Z,19.37
2022-12-19T02:51:15.475Z,19.37
2022-12-19T02:53:43.859Z,19.36
2022-12-19T02:56:37.639Z,19.36
2022-12-19T02:59:20.197Z,19.35
2022-12-19T03:01:54.477Z,19.35
2022-12-19T03:04:38.755Z,19.35
2022-12-19T03:07:25.185Z,19.34
2022-12-19T03:10:05.690Z,19.34
2022-12-19T03:12:46.523Z,19.33
2022-12-19T03:15:15.455Z,19.33
2022-12-19T03:17:43.320Z,19.32
2022-12-19T03:20:25.420Z,19.32
2022-12-19T03:22:52.799Z,19.32
2022-12-19T03:25:22.409Z,19.32
2022-12-19T03:27:52.096Z,19.32
2022-12-19T03:30:19.779Z,19.32
2022-12-19T03:32:48.610Z,19.32
2022-12-19T03:35:22.605Z,19.32
2022-12-19T03:37:52.528Z,19.32
2022-12-19T03:40:24.351Z,19.33
2022-12-19T03:43:09.665Z,19.32
2022-12-19T03:45:38.461Z,19.31
2022-12-19T03:48:12.945Z,19.31
2022-12-19T03:50:59.244Z,19.32
2022-12-19T03:53:36.520Z,19.31
2022-12-19T03:56:17.451Z,19.32
2022-12-19T03:58:51.510Z,19.31
2022-12-19T04:01:19.380Z,19.31
2022-12-19T04:03:47.247Z,19.30
2022-12-19T04:06:15.059Z,19.31
2022-12-19T04:08:42.840Z,19.29
2022-12-19T04:11:17.456Z,19.31
2022-12-19T04:13:52.204Z,19.28
2022-12-19T04:16:34.075Z,19.29
2022-12-19T04:19:27.974Z,19.28
2022-12-19T04:22:16.010Z,19.28
2022-12-19T04:24:46.888Z,19.26
2022-12-19T04:27:15.094Z,19.27
2022-12-19T04:29:43.474Z,19.27
2022-12-19T04:32:12.198Z,19.25
2022-12-19T04:34:43.006Z,19.25
2022-12-19T04:37:12.215Z,19.25
2022-12-19T04:39:39.636Z,19.25
2022-12-19T04:42:06.939Z,19.24
2022-12-19T04:44:34.257Z,19.24
2022-12-19T04:47:01.542Z,19.24
2022-12-19T04:49:28.902Z,19.24
2022-12-19T04:51:56.147Z,19.23
2022-12-19T04:54:23.431Z,19.23
2022-12-19T04:56:50.760Z,19.24
2022-12-19T04:59:18.054Z,19.23
2022-12-19T05:01:45.682Z,19.23
2022-12-19T05:04:13.119Z,19.23
2022-12-19T05:06:40.338Z,19.23
2022-12-19T05:09:07.720Z,19.22
2022-12-19T05:11:34.997Z,19.23
2022-12-19T05:14:02.413Z,19.23
2022-12-19T05:16:29.874Z,19.22
2022-12-19T05:18:57.315Z,19.22
2022-12-19T05:21:24.611Z,19.22
2022-12-19T05:23:51.924Z,19.22
2022-12-19T05:26:19.804Z,19.22
2022-12-19T05:28:47.111Z,19.22
2022-12-19T05:31:17.984Z,19.21
2022-12-19T05:33:46.619Z,19.22
2022-12-19T05:36:15.406Z,19.23
2022-12-19T05:38:42.985Z,19.22
2022-12-19T05:41:15.919Z,19.23
2022-12-19T05:43:45.464Z,19.22
2022-12-19T05:46:13.076Z,19.22
2022-12-19T05:48:40.623Z,19.21
2022-12-19T05:51:08.846Z,19.21
2022-12-19T05:53:37.384Z,19.21
2022-12-19T05:56:12.018Z,19.20
2022-12-19T05:58:40.916Z,19.20
2022-12-19T06:01:11.791Z,19.18
2022-12-19T06:03:39.887Z,19.19
2022-12-19T06:06:10.627Z,19.19
2022-12-19T06:08:38.499Z,19.18
2022-12-19T06:11:07.119Z,19.18
2022-12-19T06:13:35.403Z,19.19
2022-12-19T06:16:06.138Z,19.18
2022-12-19T06:18:34.227Z,19.19
2022-12-19T06:21:10.332Z,19.19
2022-12-19T06:23:37.977Z,19.19
2022-12-19T06:26:07.073Z,19.19
2022-12-19T06:28:34.990Z,19.19
2022-12-19T06:31:04.548Z,19.19
2022-12-19T06:33:33.354Z,19.19
2022-12-19T06:36:07.313Z,19.18
2022-12-19T06:38:35.144Z,19.18
2022-12-19T06:41:22.385Z,19.18
2022-12-19T06:43:53.341Z,19.18
2022-12-19T06:46:21.175Z,19.18
2022-12-19T06:48:48.492Z,19.17
2022-12-19T06:51:15.789Z,19.17
2022-12-19T06:53:43.059Z,19.17
2022-12-19T06:56:13.740Z,19.17
2022-12-19T06:58:41.484Z,19.16
2022-12-19T07:01:17.280Z,19.16
2022-12-19T07:03:46.558Z,19.16
2022-12-19T07:06:14.095Z,19.14
2022-12-19T07:08:41.415Z,19.14
2022-12-19T07:11:08.772Z,19.13
2022-12-19T07:13:36.178Z,19.14
2022-12-19T07:16:05.380Z,19.13
2022-12-19T07:18:37.375Z,19.13
2022-12-19T07:21:06.750Z,19.14
2022-12-19T07:23:35.255Z,19.14
2022-12-19T07:26:02.781Z,19.15
2022-12-19T07:28:30.566Z,19.16
2022-12-19T07:30:57.826Z,19.16
2022-12-19T07:33:25.069Z,19.16
2022-12-19T07:35:52.422Z,19.16
2022-12-19T07:38:19.747Z,19.16
2022-12-19T07:40:47.067Z,19.15
2022-12-19T07:43:14.485Z,19.17
2022-12-19T07:45:43.250Z,19.16
2022-12-19T07:48:10.604Z,19.16
2022-12-19T07:50:37.879Z,19.16
2022-12-19T07:53:05.189Z,19.14
2022-12-19T07:55:33.558Z,19.14
2022-12-19T07:58:00.960Z,19.14
2022-12-19T08:00:28.458Z,19.15
2022-12-19T08:02:55.893Z,19.16
2022-12-19T08:05:23.282Z,19.15
2022-12-19T08:07:50.670Z,19.16
2022-12-19T08:10:19.357Z,19.14
2022-12-19T08:12:46.691Z,19.10
2022-12-19T08:15:14.252Z,19.05
2022-12-19T08:17:41.711Z,19.04
2022-12-19T08:20:11.367Z,18.99
2022-12-19T08:22:38.681Z,18.95
2022-12-19T08:25:07.593Z,18.91
2022-12-19T08:27:35.084Z,18.88
2022-12-19T08:30:03.413Z,18.84
2022-12-19T08:32:30.674Z,18.82
2022-12-19T08:34:57.925Z,18.78
2022-12-19T08:37:25.197Z,18.77
2022-12-19T08:39:52.442Z,18.78
2022-12-19T08:42:19.773Z,18.80
2022-12-19T08:44:47.056Z,18.83
2022-12-19T08:47:14.993Z,18.85
2022-12-19T08:49:42.444Z,18.86
2022-12-19T08:52:09.696Z,18.87
2022-12-19T08:54:37.100Z,18.88
2022-12-19T08:57:04.705Z,18.89
2022-12-19T08:59:32.480Z,18.92
2022-12-19T09:02:02.007Z,18.92
2022-12-19T09:05:59.557Z,18.93
2022-12-19T09:07:18.028Z,18.93
2022-12-19T09:09:45.454Z,18.94
2022-12-19T09:12:14.420Z,18.95
2022-12-19T09:14:42.072Z,18.95
2022-12-19T09:17:09.605Z,18.93
2022-12-19T09:19:36.974Z,18.95
2022-12-19T09:22:04.771Z,18.95
2022-12-19T09:24:32.095Z,18.95
2022-12-19T09:26:59.430Z,18.95
2022-12-19T09:29:29.683Z,18.95
2022-12-19T09:31:59.519Z,18.97
2022-12-19T09:34:33.023Z,18.96
2022-12-19T09:37:16.042Z,18.96
2022-12-19T09:39:46.787Z,18.97
2022-12-19T09:42:23.232Z,18.96
2022-12-19T09:45:08.342Z,18.97
2022-12-19T09:47:41.085Z,18.97
2022-12-19T09:50:31.695Z,18.96
2022-12-19T09:53:06.062Z,18.96
2022-12-19T09:55:36.841Z,18.97
2022-12-19T09:58:10.903Z,18.97
2022-12-19T10:00:56.029Z,18.95
2022-12-19T10:03:45.303Z,18.96
2022-12-19T10:07:10.430Z,18.95
2022-12-19T10:10:08.499Z,18.96
2022-12-19T10:12:39.119Z,18.94
2022-12-19T10:15:29.869Z,18.95
2022-12-19T10:17:57.308Z,18.95
2022-12-19T10:20:29.546Z,18.94
2022-12-19T10:23:17.815Z,18.94
2022-12-19T10:26:07.522Z,18.93
2022-12-19T10:28:46.716Z,18.93
2022-12-19T10:31:24.798Z,18.92
2022-12-19T10:34:20.099Z,18.92
2022-12-19T10:39:55.344Z,18.92
2022-12-19T10:42:34.253Z,18.93
2022-12-19T10:45:09.972Z,18.92
2022-12-19T10:47:37.428Z,18.92
2022-12-19T10:50:09.534Z,18.92
2022-12-19T10:52:47.673Z,18.93
2022-12-19T10:55:44.237Z,18.93
2022-12-19T10:58:36.344Z,18.93
2022-12-19T11:01:24.668Z,18.92
2022-12-19T11:04:14.869Z,18.92
2022-12-19T11:06:47.185Z,18.91
2022-12-19T11:09:23.421Z,18.92
2022-12-19T11:15:18.327Z,18.91
2022-12-19T11:21:01.536Z,18.91
2022-12-19T11:27:04.344Z,18.91
2022-12-19T11:29:32.464Z,18.92
2022-12-19T11:29:46.980Z,18.91
2022-12-19T11:30:37.766Z,18.90
2022-12-19T11:30:46.604Z,18.91
2022-12-19T11:34:32.123Z,18.89
2022-12-19T11:37:27.101Z,18.88
2022-12-19T11:40:10.930Z,18.89
2022-12-19T11:43:43.652Z,18.89
2022-12-19T11:46:22.229Z,18.90
2022-12-19T11:49:15.508Z,18.89
2022-12-19T11:51:56.031Z,18.90
2022-12-19T11:54:39.967Z,18.91
2022-12-19T11:57:13.132Z,18.91
2022-12-19T11:59:40.800Z,18.92
2022-12-19T12:02:35.555Z,18.91
2022-12-19T12:05:28.505Z,18.90
2022-12-19T12:09:22.988Z,18.90
2022-12-19T12:17:43.659Z,18.89
2022-12-19T12:28:01.704Z,18.90
2022-12-19T12:31:14.424Z,18.89
2022-12-19T12:31:28.907Z,18.91
2022-12-19T12:31:56.212Z,18.89
2022-12-19T12:32:03.363Z,18.89
2022-12-19T12:35:09.089Z,18.90
2022-12-19T12:35:31.723Z,18.89
2022-12-19T12:39:11.884Z,18.90
2022-12-19T12:42:36.825Z,18.89
2022-12-19T12:45:20.993Z,18.88
2022-12-19T12:47:51.333Z,18.88
2022-12-19T12:50:22.077Z,18.89
2022-12-19T12:52:53.802Z,18.88
2022-12-19T12:55:25.757Z,18.89
2022-12-19T12:57:53.224Z,18.91
2022-12-19T13:00:25.934Z,18.92
2022-12-19T13:03:13.575Z,18.91
2022-12-19T13:05:54.196Z,18.93
2022-12-19T13:08:26.013Z,18.92
2022-12-19T13:10:56.556Z,18.92
2022-12-19T13:13:53.605Z,18.92
2022-12-19T13:16:45.788Z,18.93
2022-12-19T13:19:24.149Z,18.92
2022-12-19T13:22:04.301Z,18.93
2022-12-19T13:24:45.368Z,18.93
2022-12-19T13:27:18.958Z,18.94
2022-12-19T13:29:55.754Z,18.92
2022-12-19T13:32:23.809Z,18.93
2022-12-19T13:35:12.446Z,18.93
2022-12-19T13:39:55.327Z,18.92
2022-12-19T13:40:55.350Z,18.92
2022-12-19T13:43:50.083Z,18.93
2022-12-19T13:46:27.183Z,18.93
2022-12-19T13:49:02.755Z,18.92
2022-12-19T13:51:41.251Z,18.92
2022-12-19T13:54:19.604Z,18.91
2022-12-19T13:56:46.959Z,18.91
2022-12-19T13:59:14.819Z,18.91
2022-12-19T14:01:42.439Z,18.90
2022-12-19T14:04:12.393Z,18.89
2022-12-19T14:06:46.063Z,18.90
2022-12-19T14:11:27.777Z,18.89
2022-12-19T14:13:51.054Z,18.91
2022-12-19T14:15:41.559Z,18.90
2022-12-19T14:18:44.199Z,18.90
2022-12-19T14:22:08.688Z,18.89
2022-12-19T14:24:22.317Z,18.90
2022-12-19T14:28:25.853Z,18.90
2022-12-19T14:30:27.865Z,18.89
2022-12-19T14:33:46.858Z,18.88
2022-12-19T14:36:07.131Z,18.89
2022-12-19T14:39:22.087Z,18.88
2022-12-19T14:42:01.511Z,18.88
2022-12-19T14:52:52.358Z,18.86
2022-12-19T14:53:34.398Z,18.86
2022-12-19T14:54:09.567Z,18.85
2022-12-19T14:54:45.330Z,18.86
2022-12-19T14:56:40.317Z,18.86
2022-12-19T14:59:01.546Z,18.86
2022-12-19T15:01:33.486Z,18.86
2022-12-19T15:04:49.092Z,18.86
2022-12-19T15:07:06.622Z,18.85
2022-12-19T15:11:04.726Z,18.86
2022-12-19T15:14:51.499Z,18.85
2022-12-19T15:16:02.431Z,18.85
2022-12-19T15:18:32.551Z,18.86
2022-12-19T15:21:02.489Z,18.85
2022-12-19T15:23:30.503Z,18.86
2022-12-19T15:26:05.052Z,18.85
2022-12-19T15:28:39.769Z,18.85
2022-12-19T15:31:32.329Z,18.86
2022-12-19T15:36:48.299Z,18.86
2022-12-19T15:39:16.397Z,18.87
2022-12-19T15:41:46.982Z,18.85
2022-12-19T15:44:38.140Z,18.85
2022-12-19T15:47:14.474Z,18.86
2022-12-19T15:49:41.802Z,18.86
2022-12-19T15:52:26.671Z,18.85
2022-12-19T15:54:56.712Z,18.86
2022-12-19T15:57:36.730Z,18.85
2022-12-19T16:00:08.167Z,18.84
2022-12-19T16:03:13.277Z,18.85
2022-12-19T16:05:26.076Z,18.85
2022-12-19T16:07:53.493Z,18.84
2022-12-19T16:10:21.919Z,18.84
2022-12-19T16:12:55.487Z,18.84
2022-12-19T16:15:30.048Z,18.84
2022-12-19T16:17:59.160Z,18.83
2022-12-19T16:20:29.348Z,18.83
2022-12-19T16:22:57.013Z,18.83
2022-12-19T16:25:32.216Z,18.83
2022-12-19T16:28:01.105Z,18.82
2022-12-19T16:30:31.581Z,18.82
2022-12-19T16:32:59.613Z,18.83
2022-12-19T16:36:02.553Z,18.83
2022-12-19T16:38:17.623Z,18.83
2022-12-19T16:40:46.129Z,18.83
2022-12-19T16:43:25.582Z,18.83
2022-12-19T16:45:55.732Z,18.85
2022-12-19T16:48:29.831Z,18.86
2022-12-19T16:50:58.660Z,18.87
2022-12-19T16:53:26.090Z,18.87
2022-12-19T16:55:55.016Z,18.89
2022-12-19T16:58:26.325Z,18.90
2022-12-19T17:00:57.243Z,18.91
2022-12-19T17:03:43.527Z,18.90
2022-12-19T17:06:19.447Z,18.93
2022-12-19T17:08:46.837Z,18.93
2022-12-19T17:11:24.598Z,18.95
2022-12-19T17:14:00.584Z,18.95
2022-12-19T17:16:29.653Z,18.96
2022-12-19T17:18:58.012Z,18.95
2022-12-19T17:21:25.511Z,18.97
2022-12-19T17:23:53.014Z,18.98
2022-12-19T17:26:20.484Z,18.98
2022-12-19T17:28:50.829Z,18.99
2022-12-19T17:31:24.607Z,18.99
2022-12-19T17:33:54.952Z,19.00
2022-12-19T17:36:29.852Z,19.00
2022-12-19T17:39:00.319Z,19.01
2022-12-19T17:41:27.712Z,19.03
2022-12-19T17:43:55.139Z,19.03
2022-12-19T17:46:24.394Z,19.03
2022-12-19T17:48:53.416Z,19.03
2022-12-19T17:51:23.094Z,19.05
2022-12-19T17:53:51.312Z,19.07
2022-12-19T17:56:20.788Z,19.09
2022-12-19T17:58:49.269Z,19.11
2022-12-19T18:01:22.954Z,19.13
2022-12-19T18:03:52.464Z,19.16
2022-12-19T18:06:20.996Z,19.18
2022-12-19T18:08:48.404Z,19.21
2022-12-19T18:11:22.145Z,19.21
2022-12-19T18:13:50.017Z,19.20
2022-12-19T18:16:20.792Z,19.22
2022-12-19T18:18:48.552Z,19.21
2022-12-19T18:21:18.922Z,19.20
2022-12-19T18:23:46.843Z,19.20
2022-12-19T18:26:14.742Z,19.21
2022-12-19T18:28:42.596Z,19.19
2022-12-19T18:31:27.995Z,19.20
2022-12-19T18:34:00.822Z,19.20
2022-12-19T18:36:40.122Z,19.21
2022-12-19T18:39:22.286Z,19.22
2022-12-19T18:41:50.377Z,19.23
2022-12-19T18:44:18.122Z,19.24
2022-12-19T18:46:46.420Z,19.25
2022-12-19T18:49:16.047Z,19.24
2022-12-19T18:51:44.811Z,19.25
2022-12-19T18:54:18.860Z,19.26
2022-12-19T18:56:47.134Z,19.25
2022-12-19T18:59:14.798Z,19.25
2022-12-19T19:01:47.284Z,19.26
2022-12-19T19:04:17.846Z,19.25
2022-12-19T19:06:50.923Z,19.26
2022-12-19T19:09:20.853Z,19.26
2022-12-19T19:12:03.672Z,19.26
2022-12-19T19:14:30.966Z,19.25
2022-12-19T19:16:58.343Z,19.27
2022-12-19T19:19:26.039Z,19.27
2022-12-19T19:21:53.319Z,19.27
2022-12-19T19:24:22.821Z,19.29
2022-12-19T19:26:50.208Z,19.30
2022-12-19T19:29:19.725Z,19.30
2022-12-19T19:31:50.140Z,19.30
2022-12-19T19:34:28.229Z,19.31
2022-12-19T19:36:59.762Z,19.31
2022-12-19T19:39:27.921Z,19.31
2022-12-19T19:41:56.397Z,19.31
2022-12-19T19:44:23.880Z,19.31
2022-12-19T19:46:51.522Z,19.32
2022-12-19T19:49:21.023Z,19.32
2022-12-19T19:51:48.308Z,19.32
2022-12-19T19:54:16.125Z,19.33
2022-12-19T19:56:43.421Z,19.33
2022-12-19T19:59:11.025Z,19.34
2022-12-19T20:01:38.716Z,19.34
2022-12-19T20:04:06.380Z,19.35
2022-12-19T20:06:33.848Z,19.34
2022-12-19T20:09:01.354Z,19.34
2022-12-19T20:11:28.696Z,19.34
2022-12-19T20:13:56.334Z,19.34
2022-12-19T20:16:23.664Z,19.36
2022-12-19T20:18:52.785Z,19.35
2022-12-19T20:21:20.619Z,19.36
2022-12-19T20:23:48.051Z,19.36
2022-12-19T20:26:16.910Z,19.38
2022-12-19T20:28:49.014Z,19.39
2022-12-19T20:31:19.551Z,19.40
2022-12-19T20:33:48.358Z,19.38
2022-12-19T20:36:17.646Z,19.39
2022-12-19T20:38:45.346Z,19.39
2022-12-19T20:41:13.037Z,19.40
2022-12-19T20:43:41.387Z,19.40
2022-12-19T20:46:14.416Z,19.40
2022-12-19T20:48:42.260Z,19.41
2022-12-19T20:51:10.255Z,19.41
2022-12-19T20:53:38.693Z,19.41
2022-12-19T20:56:07.918Z,19.41
2022-12-19T20:58:37.465Z,19.42
2022-12-19T21:01:07.909Z,19.42
2022-12-19T21:03:36.501Z,19.42
2022-12-19T21:06:05.140Z,19.43
2022-12-19T21:08:32.967Z,19.43
2022-12-19T21:11:01.628Z,19.45
2022-12-19T21:13:29.257Z,19.45
2022-12-19T21:15:58.922Z,19.44
2022-12-19T21:18:27.927Z,19.44
2022-12-19T21:20:55.872Z,19.45
2022-12-19T21:23:25.422Z,19.45
2022-12-19T21:25:58.620Z,19.45
2022-12-19T21:28:27.231Z,19.47
2022-12-19T21:31:13.146Z,19.46
2022-12-19T21:33:40.741Z,19.47
2022-12-19T21:36:10.811Z,19.46
2022-12-19T21:38:38.512Z,19.48
2022-12-19T21:41:07.435Z,19.47
2022-12-19T21:43:36.692Z,19.47
2022-12-19T21:46:09.020Z,19.48
2022-12-19T21:48:39.100Z,19.50
2022-12-19T21:51:07.573Z,19.50
2022-12-19T21:53:35.965Z,19.49
2022-12-19T21:56:19.919Z,19.49
2022-12-19T21:58:47.316Z,19.50
2022-12-19T22:01:14.729Z,19.50
2022-12-19T22:03:42.340Z,19.51
2022-12-19T22:06:16.438Z,19.52
2022-12-19T22:08:45.600Z,19.55
2022-12-19T22:11:15.710Z,19.55
2022-12-19T22:13:43.980Z,19.55
2022-12-19T22:16:12.136Z,19.55
2022-12-19T22:18:40.401Z,19.55
2022-12-19T22:21:10.208Z,19.55
2022-12-19T22:23:37.673Z,19.56
2022-12-19T22:26:05.098Z,19.55
2022-12-19T22:28:34.805Z,19.56
2022-12-19T22:31:03.466Z,19.57
2022-12-19T22:33:30.986Z,19.56
2022-12-19T22:35:58.254Z,19.57
2022-12-19T22:38:25.661Z,19.57
2022-12-19T22:40:53.019Z,19.57
2022-12-19T22:43:20.715Z,19.58
2022-12-19T22:45:48.025Z,19.59
2022-12-19T22:48:15.411Z,19.61
2022-12-19T22:50:49.301Z,19.62
2022-12-19T22:53:16.622Z,19.64
2022-12-19T22:55:44.587Z,19.65
2022-12-19T22:58:11.856Z,19.63
2022-12-19T23:00:39.437Z,19.63
2022-12-19T23:03:06.937Z,19.63
2022-12-19T23:05:36.830Z,19.64
2022-12-19T23:08:04.615Z,19.63
2022-12-19T23:10:31.911Z,19.64
2022-12-19T23:12:59.254Z,19.65
2022-12-19T23:15:26.552Z,19.66
2022-12-19T23:17:54.057Z,19.67
2022-12-19T23:20:21.413Z,19.67
2022-12-19T23:22:48.632Z,19.66
2022-12-19T23:25:16.056Z,19.68
2022-12-19T23:27:43.919Z,19.68
2022-12-19T23:30:11.479Z,19.68
2022-12-19T23:32:38.861Z,19.69
2022-12-19T23:35:06.327Z,19.68
2022-12-19T23:37:33.798Z,19.69
2022-12-19T23:40:01.127Z,19.69
2022-12-19T23:42:28.429Z,19.70
2022-12-19T23:44:55.765Z,19.70
2022-12-19T23:47:23.188Z,19.70
2022-12-19T23:49:50.599Z,19.72
2022-12-19T23:55:36.341Z,19.72
2022-12-19T23:58:09.363Z,19.72
